FW3877 Weather Reports


Display with metric or nautical units.
time (UTC)temp
F
wind
direction
speed
MPH
gust
MPH
rain 1hr
in
rain 24hr
in
rain mn
in
humidity
%
barometer
mb
20240227071704 48 280 7.0 13.0 0.02 0.10 0.10 96 1012.1
20240227071203 48 275 8.0 14.0 0.02 0.10 0.10 96 1012.1
20240227070703 48 277 9.0 12.0 0.01 0.09 0.09 96 1012.1
20240227070203 48 260 8.0 14.0 0.01 0.09 0.09 96 1012.2
20240227065703 48 268 9.0 13.0 0.01 0.09 0.09 96 1012.4
20240227065203 48 280 9.0 14.0 0.02 0.09 0.09 96 1012.2
20240227064703 47 273 9.0 17.0 0.02 0.09 0.09 96 1012.3
20240227064203 47 279 10.0 16.0 0.02 0.09 0.09 96 1012.3
20240227062705 47 269 10.0 18.0 0.02 0.09 0.09 96 1012.3
20240227062204 47 268 13.0 18.0 0.02 0.09 0.09 96 1012.4
20240227061703 47 269 12.0 18.0 0.02 0.09 0.09 96 1012.4
20240227060707 47 275 13.0 21.0 0.02 0.09 0.09 96 1012.5
20240227060205 47 276 13.0 20.0 0.02 0.09 0.09 95 1012.6
20240227055705 47 273 13.0 20.0 0.02 0.09 0.09 95 1012.7
20240227055204 47 263 14.0 23.0 0.02 0.08 0.08 95 1012.7
20240227054703 47 273 15.0 22.0 0.02 0.08 0.08 95 1012.7
20240227054203 47 272 13.0 20.0 0.02 0.08 0.08 95 1012.8
20240227053704 47 264 14.0 20.0 0.02 0.08 0.08 95 1012.7
20240227053203 47 261 14.0 21.0 0.02 0.08 0.08 95 1012.9
20240227052704 47 270 16.0 21.0 0.02 0.07 0.07 95 1012.9
20240227052205 47 277 13.0 22.0 0.02 0.07 0.07 95 1013.0
20240227051704 47 272 13.0 21.0 0.03 0.07 0.07 95 1013.0
20240227051205 47 270 13.0 21.0 0.03 0.06 0.06 94 1013.0
20240227050703 47 269 13.0 23.0 0.06 0.06 0.06 94 1013.2
20240227050203 47 277 15.0 21.0 0.06 0.06 0.06 94 1013.4
20240227044703 47 267 15.0 20.0 0.06 0.06 0.06 94 1013.4
20240227044204 47 265 14.0 23.0 0.06 0.06 0.06 94 1013.5
20240227043704 47 265 14.0 24.0 0.06 0.06 0.06 94 1013.6
20240227043203 46 271 14.0 22.0 0.06 0.06 0.06 94 1013.5
20240227042204 47 259 15.0 23.0 0.06 0.06 0.06 94 1013.8
20240227022203 48 263 16.0 24.0 0.00 0.00 0.00 84 1015.5
20240227021705 47 271 17.0 26.0 0.00 0.00 0.00 84 1015.6
20240227021204 46 253 10.0 30.0 0.00 0.00 0.00 84 1016.8
20240227005204 45 266 10.0 15.0 0.00 0.00 0.00 83 1017.7
20240227004705 45 264 10.0 20.0 0.00 0.00 0.00 83 1017.8
20240227004204 45 270 12.0 18.0 0.00 0.00 0.00 83 1017.8
20240227003703 44 263 10.0 17.0 0.00 0.00 0.00 84 1017.9
20240227003203 44 273 10.0 13.0 0.00 0.00 0.00 84 1017.9
20240227002703 44 266 10.0 15.0 0.00 0.00 0.00 83 1017.9
20240227002204 44 259 11.0 18.0 0.00 0.00 0.00 83 1018.1
20240227001204 45 237 17.0 24.0 0.00 0.00 0.00 81 1018.1
20240227000706 45 241 14.0 23.0 0.00 0.00 0.00 81 1018.2
20240227000204 44 251 14.0 22.0 0.00 0.00 0.00 82 1018.0
20240226235203 44 253 9.0 14.0 0.00 0.00 0.00 82 1018.5
20240226234205 44 255 9.0 13.0 0.00 0.00 0.00 82 1018.8
20240226233704 44 247 10.0 14.0 0.00 0.00 0.00 81 1018.8
20240226233203 44 253 9.0 15.0 0.00 0.00 0.00 81 1018.7
20240226232706 44 245 11.0 18.0 0.00 0.00 0.00 80 1018.6
20240226232204 44 255 10.0 18.0 0.00 0.00 0.00 80 1018.7
20240226231204 44 248 12.0 20.0 0.00 0.00 0.00 80 1018.8
20240226230704 44 261 10.0 18.0 0.00 0.00 0.00 80 1019.0
20240226230204 44 249 12.0 20.0 0.00 0.00 0.00 80 1019.0
20240226225204 44 245 13.0 20.0 0.00 0.00 0.00 80 1019.1
20240226224703 43 245 10.0 15.0 0.00 0.00 0.00 80 1019.4
20240226224203 43 246 11.0 17.0 0.00 0.00 0.00 80 1019.6
20240226223704 43 238 12.0 18.0 0.00 0.00 0.00 80 1019.8
20240226222704 43 241 9.0 15.0 0.00 0.00 0.00 80 1020.0
20240226222204 43 245 10.0 15.0 0.00 0.00 0.00 80 1020.2
20240226221705 43 246 12.0 20.0 0.00 0.00 0.00 80 1020.4
20240226220704 42 248 6.0 15.0 0.00 0.00 0.00 80 1020.8
20240226220205 42 245 9.0 15.0 0.00 0.00 0.00 80 1020.8
20240226215703 42 238 10.0 14.0 0.00 0.00 0.00 80 1020.8
20240226215204 42 249 9.0 15.0 0.00 0.00 0.00 81 1021.1
20240226214704 41 256 6.0 12.0 0.00 0.00 0.00 81 1021.1
20240226214204 42 255 6.0 10.0 0.00 0.00 0.00 81 1021.2
20240226213705 42 224 8.0 13.0 0.00 0.00 0.00 80 1021.3
20240226212704 42 259 8.0 12.0 0.00 0.00 0.00 81 1021.7
20240226212204 42 269 6.0 12.0 0.00 0.00 0.00 81 1021.6
20240226211713 42 263 7.0 12.0 0.00 0.00 0.00 81 1021.6
20240226211203 42 250 8.0 14.0 0.00 0.00 0.00 81 1021.6
20240226210703 42 256 7.0 12.0 0.00 0.00 0.00 81 1021.7
20240226210203 42 249 8.0 12.0 0.00 0.00 0.00 81 1021.7
20240226205703 41 255 8.0 12.0 0.00 0.00 0.00 82 1021.6
20240226205203 41 243 9.0 12.0 0.00 0.00 0.00 82 1021.4
20240226204704 41 235 8.0 12.0 0.00 0.00 0.00 82 1021.3
20240226203703 41 254 6.0 10.0 0.00 0.00 0.00 83 1021.5
20240226202703 41 249 6.0 10.0 0.00 0.00 0.00 84 1021.4
20240226202205 41 251 5.0 9.0 0.00 0.00 0.00 84 1021.6
20240226201705 41 247 6.0 9.0 0.00 0.00 0.00 84 1021.7
20240226201203 41 248 7.0 12.0 0.00 0.00 0.00 85 1021.6
20240226200704 41 255 6.0 9.0 0.00 0.00 0.00 84 1021.7
20240226200204 41 246 5.0 8.0 0.00 0.00 0.00 84 1021.5
20240226195704 41 248 4.0 8.0 0.00 0.00 0.00 84 1021.8
20240226195203 41 253 5.0 8.0 0.00 0.00 0.00 84 1021.9
20240226194703 41 256 3.0 7.0 0.00 0.00 0.00 84 1021.8
20240226194203 41 250 4.0 7.0 0.00 0.00 0.00 84 1021.8
20240226193703 41 245 4.0 6.0 0.00 0.00 0.00 83 1021.7
20240226193204 41 261 4.0 7.0 0.00 0.00 0.00 83 1021.9
20240226192704 41 240 3.0 7.0 0.00 0.00 0.00 82 1021.9
20240226192203 41 242 3.0 6.0 0.00 0.00 0.00 82 1021.9
20240226191703 41 242 3.0 5.0 0.00 0.00 0.00 82 1021.9
20240226191205 41 236 2.0 3.0 0.00 0.00 0.00 81 1022.1
20240226185204 41 236 2.0 3.0 0.00 0.00 0.00 80 1022.4
20240226184203 41 249 2.0 3.0 0.00 0.00 0.00 79 1022.5
20240226183703 42 248 2.0 3.0 0.00 0.00 0.00 79 1022.5
20240226182203 42 273 2.0 3.0 0.00 0.00 0.00 78 1022.4
20240226181703 42 283 3.0 3.0 0.00 0.00 0.00 78 1022.5
20240226181206 42 280 3.0 6.0 0.00 0.00 0.00 78 1022.6
20240226180704 42 282 2.0 3.0 0.00 0.00 0.00 77 1022.7
20240226180204 43 282 2.0 3.0 0.00 0.00 0.00 77 1022.7
20240226175205 43 286 2.0 3.0 0.00 0.00 0.00 77 1023.0
20240226174704 43 276 2.0 3.0 0.00 0.00 0.00 77 1023.0
20240226174206 43 265 2.0 3.0 0.00 0.00 0.00 76 1023.0
20240226173704 44 286 1.0 2.0 0.00 0.00 0.00 76 1023.1
20240226173204 44 89 1.0 2.0 0.00 0.00 0.00 75 1023.2
20240226172704 44 89 0.0 1.0 0.00 0.00 0.00 74 1023.0
20240226172203 45 89 1.0 2.0 0.00 0.00 0.00 73 1022.8
20240226171705 45 355 1.0 2.0 0.00 0.00 0.00 72 1023.0
20240226171206 46 355 0.0 0.0 0.00 0.00 0.00 70 1022.9
20240226170704 46 355 0.0 1.0 0.00 0.00 0.00 70 1022.8
20240226170203 46 355 0.0 1.0 0.00 0.00 0.00 72 1022.6
20240226165706 47 355 0.0 1.0 0.00 0.00 0.00 68 1022.9
20240226165203 47 355 0.0 0.0 0.00 0.00 0.00 69 1023.1
20240226164706 47 355 0.0 0.0 0.00 0.00 0.00 70 1023.0
20240226164204 47 355 1.0 2.0 0.00 0.00 0.00 69 1022.8
20240226163704 48 355 1.0 3.0 0.00 0.00 0.00 68 1023.0
20240226163204 48 24 2.0 3.0 0.00 0.00 0.00 69 1022.9
20240226162703 48 8 2.0 3.0 0.00 0.00 0.00 70 1023.0
20240226162204 48 7 2.0 3.0 0.00 0.00 0.00 69 1022.8
20240226161204 48 41 2.0 3.0 0.00 0.00 0.00 70 1022.9
20240226160203 48 13 3.0 3.0 0.00 0.00 0.00 70 1022.9
20240226155703 48 347 2.0 3.0 0.00 0.00 0.00 71 1023.0
20240226154703 48 17 3.0 8.0 0.00 0.00 0.00 69 1023.1
20240226154203 48 20 4.0 5.0 0.00 0.00 0.00 69 1023.2
20240226153703 48 12 4.0 7.0 0.00 0.00 0.00 69 1023.2
20240226152205 48 18 2.0 6.0 0.00 0.00 0.00 72 1023.2
20240226151206 48 19 3.0 6.0 0.00 0.00 0.00 72 1023.2
20240226150704 47 8 3.0 5.0 0.00 0.00 0.00 72 1023.3
20240226150205 47 6 2.0 3.0 0.00 0.00 0.00 72 1023.2
20240226145704 47 21 3.0 7.0 0.00 0.00 0.00 70 1023.1
20240226145205 48 351 3.0 8.0 0.00 0.00 0.00 69 1023.2
20240226144704 48 9 4.0 8.0 0.00 0.00 0.00 70 1023.2
20240226144204 48 27 3.0 7.0 0.00 0.00 0.00 69 1023.2
20240226143705 48 22 3.0 6.0 0.00 0.00 0.00 68 1023.2
20240226143205 48 34 3.0 5.0 0.00 0.00 0.00 68 1023.3
20240226142704 48 24 4.0 7.0 0.00 0.00 0.00 69 1023.5
20240226142203 48 15 5.0 10.0 0.00 0.00 0.00 66 1023.4
20240226141703 48 11 4.0 5.0 0.00 0.00 0.00 70 1023.5
20240226141204 48 0 2.0 5.0 0.00 0.00 0.00 69 1023.6
20240226140704 48 17 4.0 5.0 0.00 0.00 0.00 66 1023.6
20240226140204 48 27 5.0 8.0 0.00 0.00 0.00 69 1023.7
20240226135703 48 19 4.0 8.0 0.00 0.00 0.00 69 1023.7
20240226134703 48 20 5.0 8.0 0.00 0.00 0.00 67 1023.8
20240226133703 48 24 5.0 12.0 0.00 0.00 0.00 67 1023.5
20240226133204 48 32 3.0 8.0 0.00 0.00 0.00 66 1023.4
20240226132703 48 10 3.0 7.0 0.00 0.00 0.00 66 1023.3
20240226132203 48 42 5.0 8.0 0.00 0.00 0.00 65 1023.4
20240226131703 48 343 3.0 6.0 0.00 0.00 0.00 68 1023.6
20240226131203 47 14 3.0 6.0 0.00 0.00 0.00 67 1023.6
20240226130704 47 33 5.0 10.0 0.00 0.00 0.00 65 1023.5
20240226130203 48 25 6.0 10.0 0.00 0.00 0.00 65 1023.4
20240226124703 48 14 5.0 9.0 0.00 0.00 0.00 64 1023.5
20240226124204 48 7 5.0 9.0 0.00 0.00 0.00 66 1023.5
20240226123704 48 19 5.0 10.0 0.00 0.00 0.00 66 1023.6
20240226123203 48 51 5.0 10.0 0.00 0.00 0.00 63 1023.5
20240226122703 48 42 6.0 12.0 0.00 0.00 0.00 62 1023.5
20240226121703 47 26 5.0 12.0 0.00 0.00 0.00 67 1023.4
20240226121204 47 61 9.0 13.0 0.00 0.00 0.00 63 1023.2
20240226120704 47 58 7.0 14.0 0.00 0.00 0.00 64 1023.3
20240226120203 47 69 7.0 13.0 0.00 0.00 0.00 65 1023.3
20240226115205 47 42 6.0 12.0 0.00 0.00 0.00 67 1023.3
20240226113703 46 60 6.0 10.0 0.00 0.00 0.00 68 1023.1
20240226113203 46 34 7.0 13.0 0.00 0.00 0.00 69 1023.1
20240226112704 46 35 7.0 15.0 0.00 0.00 0.00 70 1023.1
20240226112203 46 42 7.0 14.0 0.00 0.00 0.00 72 1023.1
20240226111704 46 57 6.0 12.0 0.00 0.00 0.00 73 1023.2
20240226111204 46 48 6.0 12.0 0.00 0.00 0.00 74 1023.2
20240226110203 45 48 6.0 13.0 0.00 0.00 0.00 74 1023.1
20240226105702 45 45 6.0 13.0 0.00 0.00 0.00 74 1023.1
20240226105203 46 55 6.0 14.0 0.00 0.00 0.00 74 1022.8
20240226104703 46 50 7.0 12.0 0.00 0.00 0.00 73 1022.7
20240226103703 46 32 7.0 12.0 0.00 0.00 0.00 76 1022.6
20240226102704 45 50 7.0 12.0 0.00 0.00 0.00 77 1022.8
20240226102203 45 83 7.0 9.0 0.00 0.00 0.00 78 1022.8
20240226101703 45 44 7.0 10.0 0.00 0.00 0.00 79 1022.7
20240226101203 45 38 6.0 12.0 0.00 0.00 0.00 80 1022.7
20240226100703 44 53 6.0 12.0 0.00 0.00 0.00 82 1022.8
20240226100203 44 44 6.0 13.0 0.00 0.00 0.00 81 1022.7
20240226095704 44 55 6.0 12.0 0.00 0.00 0.00 81 1022.6
20240226095203 43 49 6.0 12.0 0.00 0.00 0.00 82 1022.5
20240226094704 43 43 4.0 10.0 0.00 0.00 0.00 83 1022.6
20240226094204 43 47 3.0 6.0 0.00 0.00 0.00 83 1022.3
20240226093703 43 37 3.0 5.0 0.00 0.00 0.00 83 1022.2
20240226092704 43 47 3.0 7.0 0.00 0.00 0.00 83 1022.0
20240226092203 43 35 4.0 7.0 0.00 0.00 0.00 84 1021.9
20240226091704 42 49 3.0 8.0 0.00 0.00 0.00 85 1021.8
20240226090704 42 57 5.0 12.0 0.00 0.00 0.00 86 1021.7
20240226090203 42 55 5.0 12.0 0.00 0.00 0.00 86 1021.5
20240226085703 42 34 5.0 10.0 0.00 0.00 0.00 87 1021.6
20240226085203 42 28 6.0 12.0 0.00 0.00 0.00 87 1021.5
20240226084702 42 45 8.0 16.0 0.00 0.00 0.00 85 1021.6
20240226084203 42 33 7.0 17.0 0.00 0.00 0.00 83 1021.5
20240226083203 41 66 3.0 5.0 0.00 0.00 0.00 83 1021.5
20240226082705 41 60 3.0 6.0 0.00 0.00 0.00 84 1021.5
20240226082203 41 62 3.0 7.0 0.00 0.00 0.00 83 1021.5
20240226081703 41 61 6.0 9.0 0.00 0.00 0.00 83 1021.6
20240226080705 41 61 6.0 9.0 0.00 0.00 0.00 83 1021.5
20240226080204 41 57 7.0 10.0 0.00 0.00 0.00 83 1021.3
20240226075703 41 61 6.0 12.0 0.00 0.00 0.00 83 1021.4
20240226075203 41 60 5.0 9.0 0.00 0.00 0.00 83 1021.2
20240226074704 41 58 3.0 7.0 0.00 0.00 0.00 83 1021.4
20240226074205 41 51 6.0 9.0 0.00 0.00 0.00 83 1021.2
20240226073704 41 53 5.0 9.0 0.00 0.00 0.00 82 1021.2
20240226073204 41 58 4.0 9.0 0.00 0.00 0.00 82 1021.3
20240226072704 41 52 6.0 12.0 0.00 0.00 0.00 82 1021.0
20240226072204 41 59 6.0 9.0 0.00 0.00 0.00 83 1020.9